Terminal Aerodrome Forecast
Issued by NWS Sterling, VA

Current Version | Previous Version | Graphics & Text | Print | Product List | Glossary On
Versions: 1 2 3 4 5 6 7 8 9 10 11 12 13 14
000
FTUS41 KLWX 011737
TAFMRB
TAF
KMRB 011737Z 0118/0218 34006KT P6SM SCT050
     FM020200 00000KT P6SM SCT050
     FM020700 VRB03KT 4SM BR SCT050
     FM021200 31004KT P6SM SCT045=

USA.gov is the U.S. government's official web portal to all federal, state and local government web resources and services.